Time;durP1;ratioP1;P1;durP2;ratioP2;P2;SDS_P1;SDS_P2;PMS_P1;PMS_P2;Temp;Humidity;BMP_temperature;BMP_pressure;BME280_temperature;BME280_humidity;BME280_pressure;Samples;Min_cycle;Max_cycle;Signal;HPM_P1;HPM_P2
2024/04/04 00:00:07;;;;;;;0.82;0.60;;;17.70;59.40;;;;;;4926846;28;20454;-81
2024/04/04 00:02:38;;;;;;;2.00;0.50;;;17.70;59.30;;;;;;4926876;28;20134;-80
2024/04/04 00:05:04;;;;;;;1.20;0.40;;;17.80;59.30;;;;;;4926886;28;20063;-82
2024/04/04 00:07:30;;;;;;;1.13;0.50;;;17.70;59.20;;;;;;4926497;29;20036;-82
2024/04/04 00:10:00;;;;;;;1.27;0.52;;;17.70;59.10;;;;;;4926933;29;20039;-81
2024/04/04 00:12:27;;;;;;;1.60;0.40;;;17.70;59.20;;;;;;4926817;29;20308;-81
2024/04/04 00:14:53;;;;;;;1.65;0.70;;;17.70;59.10;;;;;;4926088;28;20063;-81
2024/04/04 00:17:19;;;;;;;1.98;0.50;;;17.60;59.00;;;;;;4924946;28;20843;-80
2024/04/04 00:19:45;;;;;;;1.13;0.40;;;17.60;59.00;;;;;;4925854;28;20034;-82
2024/04/04 00:22:12;;;;;;;1.27;0.65;;;17.60;58.90;;;;;;4925098;29;20087;-82
2024/04/04 00:24:38;;;;;;;2.63;0.50;;;17.60;58.80;;;;;;4925402;28;20799;-81
2024/04/04 00:27:05;;;;;;;1.50;0.60;;;17.60;58.90;;;;;;4926296;28;20086;-81
2024/04/04 00:29:31;;;;;;;4.32;0.52;;;17.60;59.00;;;;;;4924956;28;20103;-81
2024/04/04 00:31:57;;;;;;;1.73;0.70;;;17.60;59.10;;;;;;4925288;28;20889;-82
2024/04/04 00:34:23;;;;;;;1.88;0.73;;;17.60;59.20;;;;;;4923267;29;20038;-82
2024/04/04 00:36:49;;;;;;;3.28;0.70;;;17.60;59.20;;;;;;4925617;28;20411;-81
2024/04/04 00:39:15;;;;;;;2.03;0.50;;;17.60;59.00;;;;;;4926479;28;20029;-79
2024/04/04 00:41:41;;;;;;;0.50;0.50;;;17.60;59.00;;;;;;4924346;29;20032;-81
2024/04/04 00:44:08;;;;;;;2.03;0.70;;;17.50;59.10;;;;;;4925831;28;20043;-81
2024/04/04 00:46:34;;;;;;;0.80;0.50;;;17.50;59.10;;;;;;4926159;29;20040;-81
2024/04/04 00:49:01;;;;;;;0.63;0.43;;;17.50;59.00;;;;;;4925904;28;20439;-81
2024/04/04 00:51:27;;;;;;;0.65;0.38;;;17.50;58.80;;;;;;4925823;28;20048;-81
2024/04/04 00:53:54;;;;;;;0.88;0.55;;;17.50;59.00;;;;;;4924564;29;20048;-81
2024/04/04 00:56:21;;;;;;;0.80;0.40;;;17.50;58.90;;;;;;4925246;28;20533;-82
2024/04/04 00:58:47;;;;;;;2.13;0.70;;;17.50;58.80;;;;;;4927308;28;20035;-81
2024/04/04 01:01:14;;;;;;;1.75;0.50;;;17.50;58.80;;;;;;4926025;29;20039;-81
2024/04/04 01:03:41;;;;;;;1.17;0.50;;;17.50;58.90;;;;;;4925468;28;20039;-80
2024/04/04 01:06:07;;;;;;;0.70;0.57;;;17.40;58.90;;;;;;4925217;28;20039;-82
2024/04/04 01:08:33;;;;;;;2.58;0.57;;;17.40;59.10;;;;;;4924603;28;20040;-82
2024/04/04 01:11:00;;;;;;;0.60;0.30;;;17.40;59.00;;;;;;4926024;29;20040;-82
2024/04/04 01:13:26;;;;;;;0.50;0.50;;;17.50;59.00;;;;;;4934581;29;20036;-81
2024/04/04 01:15:52;;;;;;;1.05;0.47;;;17.40;58.90;;;;;;4940590;28;20063;-80
2024/04/04 01:18:21;;;;;;;1.08;0.70;;;17.40;59.00;;;;;;4924546;28;20043;-81
2024/04/04 01:20:47;;;;;;;1.05;0.50;;;17.40;59.00;;;;;;4924438;28;20044;-83
2024/04/04 01:23:13;;;;;;;0.60;0.40;;;17.40;59.10;;;;;;4940337;28;20051;-82
2024/04/04 01:25:39;;;;;;;0.60;0.40;;;17.40;59.30;;;;;;4925577;29;20046;-80
2024/04/04 01:28:05;;;;;;;2.17;0.50;;;17.30;59.30;;;;;;4923982;28;20127;-79
2024/04/04 01:30:31;;;;;;;1.80;0.35;;;17.40;59.30;;;;;;4940473;28;20047;-78
2024/04/04 01:32:57;;;;;;;0.68;0.40;;;17.40;59.60;;;;;;4923881;28;20039;-79
2024/04/04 01:35:23;;;;;;;0.95;0.35;;;17.30;59.30;;;;;;4925593;28;20597;-79
2024/04/04 01:37:49;;;;;;;0.75;0.40;;;17.40;59.40;;;;;;4924583;28;20035;-79
2024/04/04 01:40:15;;;;;;;0.52;0.32;;;17.40;59.20;;;;;;4925513;29;20038;-80
2024/04/04 01:42:41;;;;;;;1.50;0.32;;;17.40;58.90;;;;;;4923253;28;20051;-80
2024/04/04 01:45:07;;;;;;;1.27;0.38;;;17.30;58.90;;;;;;4924530;28;20044;-79
2024/04/04 01:47:33;;;;;;;1.02;0.40;;;17.30;58.70;;;;;;4924410;28;20035;-76
2024/04/04 01:49:59;;;;;;;1.42;0.50;;;17.30;58.80;;;;;;4922795;28;20059;-77
2024/04/04 01:52:25;;;;;;;1.85;0.30;;;17.30;58.60;;;;;;4924795;29;20066;-82
2024/04/04 01:54:51;;;;;;;0.93;0.30;;;17.30;58.70;;;;;;4923470;28;20039;-78
2024/04/04 01:57:17;;;;;;;1.75;0.40;;;17.30;58.60;;;;;;4923537;28;20062;-78
2024/04/04 01:59:43;;;;;;;0.85;0.30;;;17.30;58.30;;;;;;4922559;28;20035;-77
2024/04/04 02:02:09;;;;;;;0.93;0.30;;;17.30;58.30;;;;;;4924504;28;20050;-77
2024/04/04 02:04:35;;;;;;;0.55;0.30;;;17.30;58.30;;;;;;4924725;29;20039;-77
2024/04/04 02:07:01;;;;;;;1.25;0.40;;;17.20;58.10;;;;;;4923508;28;20126;-77
2024/04/04 02:09:28;;;;;;;0.70;0.40;;;17.20;58.10;;;;;;4924433;28;20156;-78
2024/04/04 02:11:54;;;;;;;0.47;0.32;;;17.20;58.10;;;;;;4924095;29;20094;-80
2024/04/04 02:14:20;;;;;;;0.52;0.30;;;17.20;58.00;;;;;;4923848;28;20038;-80
2024/04/04 02:16:46;;;;;;;2.83;0.47;;;17.20;58.00;;;;;;4926177;28;20046;-78
2024/04/04 02:19:12;;;;;;;0.73;0.20;;;17.30;58.10;;;;;;4924204;29;20036;-77
2024/04/04 02:21:38;;;;;;;0.80;0.28;;;17.20;58.10;;;;;;4923540;28;20163;-76
2024/04/04 02:24:05;;;;;;;0.63;0.30;;;17.20;58.10;;;;;;4922720;28;20063;-77
2024/04/04 02:26:32;;;;;;;1.35;0.30;;;17.20;58.00;;;;;;4923312;28;20042;-77
2024/04/04 02:28:59;;;;;;;2.05;0.40;;;17.10;58.00;;;;;;4923878;28;20035;-78
2024/04/04 02:31:26;;;;;;;2.45;0.40;;;17.20;58.10;;;;;;4925448;29;20035;-78
2024/04/04 02:33:52;;;;;;;0.43;0.30;;;17.20;57.90;;;;;;4923281;28;20068;-78
2024/04/04 02:36:18;;;;;;;0.20;0.20;;;17.20;58.20;;;;;;4923130;28;20126;-79
2024/04/04 02:38:44;;;;;;;0.65;0.30;;;17.10;58.10;;;;;;4923654;28;20119;-78
2024/04/04 02:41:10;;;;;;;0.68;0.35;;;17.10;58.00;;;;;;4923142;28;20072;-78
2024/04/04 02:43:36;;;;;;;1.02;0.38;;;17.20;57.90;;;;;;4924191;29;20052;-81
2024/04/04 02:46:03;;;;;;;1.20;0.40;;;17.10;57.90;;;;;;4924016;28;20087;-81
2024/04/04 02:48:30;;;;;;;0.82;0.30;;;17.10;58.00;;;;;;4923807;28;20032;-81
2024/04/04 02:50:57;;;;;;;0.80;0.32;;;17.10;58.00;;;;;;4924272;28;20496;-81
2024/04/04 02:53:24;;;;;;;0.90;0.30;;;17.10;58.10;;;;;;4923153;28;20043;-79
2024/04/04 02:55:54;;;;;;;0.35;0.20;;;17.10;58.30;;;;;;4923084;28;20031;-80
2024/04/04 02:58:21;;;;;;;0.60;0.30;;;17.10;58.20;;;;;;4923344;29;20086;-79
2024/04/04 03:00:47;;;;;;;1.45;0.30;;;17.10;58.20;;;;;;4921950;29;20451;-79
2024/04/04 03:03:14;;;;;;;2.25;0.20;;;17.00;58.10;;;;;;4923557;28;20090;-80
2024/04/04 03:05:41;;;;;;;0.90;0.30;;;17.00;58.20;;;;;;4923776;28;20048;-79
2024/04/04 03:08:08;;;;;;;1.67;0.60;;;17.10;58.00;;;;;;4922434;28;20521;-79
2024/04/04 03:10:34;;;;;;;0.50;0.50;;;17.00;58.00;;;;;;4926757;29;20032;-81
2024/04/04 03:13:01;;;;;;;0.55;0.30;;;17.00;58.00;;;;;;4926480;29;20491;-80
2024/04/04 03:15:27;;;;;;;0.68;0.30;;;17.00;57.90;;;;;;4927320;28;20043;-80
2024/04/04 03:17:53;;;;;;;1.35;0.30;;;17.00;57.90;;;;;;4927705;28;20042;-78
2024/04/04 03:20:19;;;;;;;0.90;0.20;;;17.00;58.00;;;;;;4925780;28;20044;-79
2024/04/04 03:22:46;;;;;;;0.30;0.20;;;17.00;57.80;;;;;;4926868;28;20517;-79
2024/04/04 03:25:12;;;;;;;1.08;0.60;;;17.00;57.80;;;;;;4927178;29;20031;-79
2024/04/04 03:27:38;;;;;;;1.95;0.30;;;16.90;57.80;;;;;;4926724;28;20150;-79
2024/04/04 03:30:05;;;;;;;0.60;0.30;;;16.90;57.90;;;;;;4926362;28;20039;-79
2024/04/04 03:32:32;;;;;;;2.85;0.40;;;16.90;57.90;;;;;;4926966;28;20036;-79
2024/04/04 03:34:58;;;;;;;0.98;0.32;;;17.00;58.10;;;;;;4926854;28;20664;-80
2024/04/04 03:37:25;;;;;;;0.52;0.20;;;16.90;58.30;;;;;;4926860;29;20035;-79
2024/04/04 03:39:52;;;;;;;1.58;0.30;;;16.90;58.40;;;;;;4927614;28;20043;-80
2024/04/04 03:42:18;;;;;;;7.32;0.65;;;16.90;58.30;;;;;;4930251;28;20040;-80
2024/04/04 03:44:44;;;;;;;0.85;0.40;;;16.90;58.30;;;;;;4940783;28;20059;-79
2024/04/04 03:47:10;;;;;;;0.30;0.30;;;16.90;58.30;;;;;;4927927;28;20033;-80
2024/04/04 03:49:36;;;;;;;0.40;0.30;;;16.90;58.40;;;;;;4928673;29;20412;-80
2024/04/04 03:52:05;;;;;;;0.73;0.40;;;16.90;58.60;;;;;;4928338;28;20494;-80
2024/04/04 03:54:31;;;;;;;0.20;0.20;;;16.90;58.60;;;;;;4928129;28;20046;-80
2024/04/04 03:56:57;;;;;;;0.63;0.35;;;16.90;58.50;;;;;;4925316;29;20032;-80
2024/04/04 03:59:23;;;;;;;1.85;0.30;;;16.90;58.50;;;;;;4934813;28;20036;-79
2024/04/04 04:01:50;;;;;;;0.45;0.20;;;16.90;58.40;;;;;;4933623;29;20031;-79
2024/04/04 04:04:17;;;;;;;0.30;0.25;;;16.80;58.50;;;;;;4932848;29;20039;-78
2024/04/04 04:06:43;;;;;;;0.65;0.28;;;16.80;58.60;;;;;;4929593;28;20040;-78
2024/04/04 04:09:09;;;;;;;0.40;0.40;;;16.80;58.60;;;;;;4927181;28;20067;-79
2024/04/04 04:11:34;;;;;;;0.63;0.35;;;16.80;58.50;;;;;;4925357;29;20052;-80
2024/04/04 04:14:01;;;;;;;0.30;0.20;;;16.80;58.60;;;;;;4924073;28;20444;-79
2024/04/04 04:16:27;;;;;;;1.80;0.40;;;16.80;58.60;;;;;;4927123;29;20122;-79
2024/04/04 04:18:53;;;;;;;1.42;0.20;;;16.80;58.50;;;;;;4926058;28;20039;-80
2024/04/04 04:21:24;;;;;;;0.35;0.30;;;16.80;58.50;;;;;;4924985;28;20587;-79
2024/04/04 04:23:51;;;;;;;1.02;0.45;;;16.80;58.30;;;;;;4926565;28;20036;-80
2024/04/04 04:26:18;;;;;;;0.95;0.40;;;16.80;58.20;;;;;;4925916;28;20043;-80
2024/04/04 04:28:45;;;;;;;1.08;0.40;;;16.80;58.20;;;;;;4926569;29;20399;-81
2024/04/04 04:31:28;;;;;;;0.50;0.20;;;16.80;58.10;;;;;;4927320;29;20055;-79
2024/04/04 04:33:55;;;;;;;1.42;0.70;;;16.80;58.20;;;;;;4926147;28;20123;-81
2024/04/04 04:36:26;;;;;;;0.90;0.60;;;16.80;58.10;;;;;;4925683;28;20039;-80
2024/04/04 04:38:52;;;;;;;1.10;0.38;;;16.80;58.10;;;;;;4925668;28;20046;-77
2024/04/04 04:41:20;;;;;;;0.75;0.40;;;16.80;58.20;;;;;;4924706;28;20912;-78
2024/04/04 04:43:46;;;;;;;0.98;0.50;;;16.80;58.30;;;;;;4924569;28;20052;-80
2024/04/04 04:46:13;;;;;;;1.00;0.47;;;16.80;58.30;;;;;;4926250;29;20039;-78
2024/04/04 04:48:39;;;;;;;1.23;0.45;;;16.80;58.40;;;;;;4924213;28;20040;-78
2024/04/04 04:51:06;;;;;;;1.70;0.57;;;16.70;58.40;;;;;;4926150;29;20035;-78
2024/04/04 04:53:33;;;;;;;1.58;0.80;;;16.80;58.40;;;;;;4924673;28;20052;-77
2024/04/04 04:55:59;;;;;;;1.77;1.00;;;16.80;58.50;;;;;;4924006;28;20036;-80
2024/04/04 04:58:25;;;;;;;3.60;1.20;;;16.80;58.60;;;;;;4925188;29;20027;-79
2024/04/04 05:00:52;;;;;;;2.17;1.05;;;16.80;58.80;;;;;;4922944;29;20095;-79
2024/04/04 05:03:23;;;;;;;3.35;1.13;;;16.80;58.70;;;;;;4926209;29;21707;-79
2024/04/04 05:05:52;;;;;;;1.90;0.90;;;16.80;58.80;;;;;;4925051;28;20626;-79
2024/04/04 05:08:19;;;;;;;4.43;1.17;;;16.80;58.90;;;;;;4924286;28;20047;-79
2024/04/04 05:10:46;;;;;;;1.77;0.98;;;16.80;59.00;;;;;;4924123;29;20042;-79
2024/04/04 05:13:13;;;;;;;5.07;1.70;;;16.80;58.80;;;;;;4924226;29;20088;-79
2024/04/04 05:15:46;;;;;;;7.20;3.70;;;16.80;58.90;;;;;;4916612;29;21128;-79
2024/04/04 05:18:13;;;;;;;5.68;4.20;;;16.80;58.70;;;;;;4923785;28;20075;-79
2024/04/04 05:20:41;;;;;;;5.30;3.45;;;16.80;58.70;;;;;;4924522;28;20701;-79
2024/04/04 05:23:08;;;;;;;4.30;2.30;;;16.80;58.70;;;;;;4924640;28;20138;-79
2024/04/04 05:25:33;;;;;;;3.25;2.13;;;16.80;58.70;;;;;;4925403;29;20032;-79
2024/04/04 05:27:59;;;;;;;2.83;1.50;;;16.80;58.60;;;;;;4924468;28;20391;-79
2024/04/04 05:30:26;;;;;;;3.53;1.27;;;16.80;58.60;;;;;;4923896;28;20039;-79
2024/04/04 05:32:53;;;;;;;1.92;1.40;;;16.80;58.40;;;;;;4923818;28;20559;-79
2024/04/04 05:35:19;;;;;;;2.95;1.35;;;16.80;58.20;;;;;;4922897;28;20135;-79
2024/04/04 05:37:45;;;;;;;1.90;1.00;;;16.80;58.10;;;;;;4924505;28;20630;-80
2024/04/04 05:40:11;;;;;;;1.73;1.00;;;16.80;58.00;;;;;;4917208;29;20024;-80
2024/04/04 05:42:37;;;;;;;1.58;1.10;;;16.80;57.80;;;;;;4923188;28;20079;-85
2024/04/04 05:45:04;;;;;;;1.27;0.90;;;16.80;58.00;;;;;;4922907;29;20447;-82
2024/04/04 05:47:30;;;;;;;2.03;0.82;;;16.80;58.20;;;;;;4910636;29;20495;-84
2024/04/04 05:49:56;;;;;;;1.90;0.88;;;16.80;58.10;;;;;;4907234;28;20047;-85
2024/04/04 05:52:22;;;;;;;1.75;0.75;;;16.80;58.20;;;;;;4922801;29;20065;-86
2024/04/04 05:54:50;;;;;;;1.15;0.60;;;16.80;58.30;;;;;;4907309;29;20035;-88
2024/04/04 05:57:16;;;;;;;1.85;1.02;;;16.80;58.30;;;;;;4923884;29;20064;-87
2024/04/04 05:59:42;;;;;;;5.05;1.00;;;16.80;58.30;;;;;;4914957;29;20048;-86
2024/04/04 06:02:09;;;;;;;1.08;0.65;;;16.80;58.40;;;;;;4896305;28;20060;-87
2024/04/04 06:04:35;;;;;;;2.67;1.20;;;16.80;58.50;;;;;;4906561;29;20056;-85
2024/04/04 06:07:02;;;;;;;2.05;1.30;;;16.80;58.60;;;;;;4903775;29;20114;-86
2024/04/04 06:09:28;;;;;;;3.33;1.40;;;16.80;58.70;;;;;;4906015;29;20126;-84
2024/04/04 06:11:54;;;;;;;1.33;0.93;;;16.80;58.80;;;;;;4920504;29;20043;-85
2024/04/04 06:14:21;;;;;;;2.28;1.02;;;16.80;59.00;;;;;;4914066;29;20537;-86
2024/04/04 06:16:47;;;;;;;1.70;0.85;;;16.80;59.20;;;;;;4920576;28;20114;-86
2024/04/04 06:19:13;;;;;;;3.05;1.08;;;16.80;59.20;;;;;;4932536;29;20035;-84
2024/04/04 06:21:39;;;;;;;1.10;0.90;;;16.80;59.30;;;;;;4923153;29;20078;-83
2024/04/04 06:24:05;;;;;;;0.88;0.70;;;16.80;59.30;;;;;;4920586;29;20507;-85
2024/04/04 06:26:31;;;;;;;1.15;0.88;;;16.80;59.80;;;;;;4907881;29;20051;-84
2024/04/04 06:28:57;;;;;;;1.83;0.80;;;16.80;59.30;;;;;;4908503;28;20035;-85
2024/04/04 06:31:24;;;;;;;0.57;0.50;;;16.80;59.30;;;;;;4923676;29;20503;-85
2024/04/04 06:33:51;;;;;;;1.33;0.52;;;16.80;59.30;;;;;;4914962;29;20411;-85
2024/04/04 06:36:17;;;;;;;1.08;0.80;;;16.80;59.20;;;;;;4923299;29;20043;-86
2024/04/04 06:38:44;;;;;;;0.70;0.65;;;16.80;59.20;;;;;;4920085;29;20727;-86
2024/04/04 06:41:11;;;;;;;1.27;0.80;;;16.80;59.10;;;;;;4923624;29;20102;-86
2024/04/04 06:43:37;;;;;;;0.50;0.50;;;16.80;59.10;;;;;;4907435;29;20048;-84
2024/04/04 06:46:04;;;;;;;0.50;0.47;;;16.90;59.00;;;;;;4910404;29;20086;-83
2024/04/04 06:48:32;;;;;;;0.95;0.70;;;16.90;59.00;;;;;;4902855;29;20043;-86
2024/04/04 06:50:58;;;;;;;1.10;0.70;;;16.90;59.00;;;;;;4925090;29;20079;-84
2024/04/04 06:53:24;;;;;;;2.97;0.80;;;16.90;58.90;;;;;;4911523;29;20046;-84
2024/04/04 06:55:50;;;;;;;0.32;0.32;;;16.90;58.80;;;;;;4926009;28;20028;-85
2024/04/04 06:58:16;;;;;;;0.90;0.65;;;16.90;58.70;;;;;;4940342;28;20028;-87
2024/04/04 07:00:43;;;;;;;0.63;0.55;;;16.90;58.70;;;;;;4927838;29;20048;-85
2024/04/04 07:03:09;;;;;;;2.03;0.82;;;16.90;58.70;;;;;;4915136;29;20036;-85
2024/04/04 07:05:35;;;;;;;1.17;0.52;;;17.00;58.70;;;;;;4922722;29;20052;-86
2024/04/04 07:08:02;;;;;;;1.35;1.00;;;16.90;58.60;;;;;;4895547;28;20039;-88
2024/04/04 07:10:28;;;;;;;1.98;1.10;;;16.90;58.60;;;;;;4895535;29;20075;-84
2024/04/04 07:12:55;;;;;;;1.85;1.10;;;17.00;58.50;;;;;;4919609;29;20095;-88
2024/04/04 07:15:21;;;;;;;1.13;0.70;;;16.90;58.30;;;;;;4895649;29;20040;-85
2024/04/04 07:17:48;;;;;;;1.00;0.90;;;16.90;58.30;;;;;;4927774;29;20373;-88
2024/04/04 07:20:14;;;;;;;0.80;0.70;;;16.90;58.30;;;;;;4903357;29;20118;-81
2024/04/04 07:22:40;;;;;;;1.80;0.75;;;17.00;58.20;;;;;;4939401;28;20028;-83
2024/04/04 07:25:07;;;;;;;1.55;0.90;;;16.90;58.10;;;;;;4912681;29;20443;-82
2024/04/04 07:27:33;;;;;;;2.05;1.08;;;17.00;58.20;;;;;;4907360;29;20403;-86
2024/04/04 07:30:00;;;;;;;0.95;0.70;;;17.00;58.10;;;;;;4927803;29;20048;-79
2024/04/04 07:32:26;;;;;;;1.15;1.00;;;17.00;58.00;;;;;;4930944;28;20063;-81
2024/04/04 07:34:52;;;;;;;0.63;0.60;;;17.00;58.10;;;;;;4930934;28;20075;-83
2024/04/04 07:37:18;;;;;;;1.05;0.63;;;17.00;58.00;;;;;;4947174;29;20036;-85
2024/04/04 07:39:44;;;;;;;1.23;0.80;;;17.00;58.60;;;;;;4931053;28;20035;-81
2024/04/04 07:42:10;;;;;;;0.75;0.40;;;17.00;57.90;;;;;;4930207;28;20035;-81
2024/04/04 07:44:38;;;;;;;1.20;0.60;;;17.00;57.80;;;;;;4927067;29;20050;-80
2024/04/04 07:47:22;;;;;;;1.02;0.43;;;17.00;57.60;;;;;;4930571;28;20035;-83
2024/04/04 07:49:49;;;;;;;0.60;0.45;;;17.00;57.30;;;;;;4931647;28;20043;-84
2024/04/04 07:52:15;;;;;;;0.50;0.50;;;17.10;57.30;;;;;;4939260;29;20054;-84
2024/04/04 07:54:41;;;;;;;1.27;0.45;;;17.10;57.30;;;;;;4921436;29;20038;-82
2024/04/04 07:57:07;;;;;;;0.65;0.50;;;17.10;57.10;;;;;;4929315;28;20027;-81
2024/04/04 07:59:33;;;;;;;1.58;0.50;;;17.10;57.10;;;;;;4930361;28;20035;-80
2024/04/04 08:01:59;;;;;;;2.05;0.35;;;17.10;56.90;;;;;;4929540;28;20047;-81
2024/04/04 08:04:25;;;;;;;2.40;0.88;;;17.10;56.90;;;;;;4928624;29;20031;-81
2024/04/04 08:06:51;;;;;;;1.52;0.40;;;17.10;56.90;;;;;;4936302;29;20039;-80
2024/04/04 08:09:18;;;;;;;2.03;0.50;;;17.10;56.90;;;;;;4929758;28;20039;-80
2024/04/04 08:11:45;;;;;;;3.10;0.45;;;17.10;56.90;;;;;;4929832;29;20542;-80
2024/04/04 08:14:11;;;;;;;1.60;0.60;;;17.10;56.70;;;;;;4925826;28;20047;-80
2024/04/04 08:16:37;;;;;;;1.27;0.50;;;17.10;56.70;;;;;;4926623;29;20547;-81
2024/04/04 08:19:04;;;;;;;0.75;0.38;;;17.20;56.70;;;;;;4924872;29;20426;-82
2024/04/04 08:21:30;;;;;;;2.58;0.47;;;17.10;56.60;;;;;;4909593;29;20035;-82
2024/04/04 08:23:56;;;;;;;1.98;0.70;;;17.20;56.50;;;;;;4914798;29;20097;-83
2024/04/04 08:26:24;;;;;;;1.08;0.80;;;17.10;56.50;;;;;;4908722;29;20069;-82
2024/04/04 08:28:51;;;;;;;1.75;0.40;;;17.20;56.50;;;;;;4924213;28;20439;-82
2024/04/04 08:31:17;;;;;;;0.70;0.30;;;17.20;56.50;;;;;;4910941;29;20479;-84
2024/04/04 08:33:43;;;;;;;1.75;0.30;;;17.20;56.40;;;;;;4910899;29;20134;-83
2024/04/04 08:36:09;;;;;;;0.82;0.60;;;17.20;56.40;;;;;;4927279;28;20130;-83
2024/04/04 08:38:35;;;;;;;0.68;0.38;;;17.20;56.40;;;;;;4927738;28;20044;-83
2024/04/04 08:41:10;;;;;;;1.70;0.47;;;17.20;56.20;;;;;;4918426;28;20510;-83
2024/04/04 08:43:37;;;;;;;1.25;0.40;;;17.20;56.10;;;;;;4927563;29;20048;-82
2024/04/04 08:46:07;;;;;;;0.68;0.47;;;17.20;56.00;;;;;;4926361;28;20040;-80
2024/04/04 08:48:34;;;;;;;1.88;0.40;;;17.20;56.00;;;;;;4929211;28;20040;-82
2024/04/04 08:51:00;;;;;;;0.80;0.40;;;17.20;55.90;;;;;;4927404;28;20083;-82
2024/04/04 08:53:27;;;;;;;1.88;0.60;;;17.20;55.90;;;;;;4925505;29;20035;-81
2024/04/04 08:55:54;;;;;;;3.47;0.60;;;17.20;55.90;;;;;;4926409;28;20126;-83
2024/04/04 08:58:22;;;;;;;0.50;0.38;;;17.20;55.90;;;;;;4925479;29;20036;-82
2024/04/04 09:00:49;;;;;;;2.45;0.40;;;17.20;55.90;;;;;;4925128;29;20431;-81
2024/04/04 09:03:16;;;;;;;1.27;0.63;;;17.20;55.80;;;;;;4926017;29;20038;-82
2024/04/04 09:05:45;;;;;;;1.75;0.40;;;17.20;55.80;;;;;;4928619;28;20036;-83
2024/04/04 09:08:12;;;;;;;0.93;0.35;;;17.20;55.80;;;;;;4928220;28;20043;-82
2024/04/04 09:10:39;;;;;;;0.75;0.43;;;17.20;55.80;;;;;;4928513;29;20039;-80
2024/04/04 09:13:06;;;;;;;1.02;0.50;;;17.20;55.70;;;;;;4925087;29;20118;-82
2024/04/04 09:15:40;;;;;;;0.73;0.30;;;17.20;55.70;;;;;;4927782;28;20044;-82
2024/04/04 09:18:13;;;;;;;1.00;0.65;;;17.20;55.70;;;;;;4925303;29;20032;-83
2024/04/04 09:20:40;;;;;;;0.63;0.30;;;17.20;55.60;;;;;;4892636;29;20039;-84
2024/04/04 09:23:08;;;;;;;0.85;0.40;;;17.20;55.60;;;;;;4909675;28;20043;-84
2024/04/04 09:25:35;;;;;;;1.25;0.60;;;17.20;55.60;;;;;;4912409;29;20118;-85
2024/04/04 09:28:08;;;;;;;1.70;0.52;;;17.20;55.50;;;;;;4919344;29;20096;-85
2024/04/04 09:30:36;;;;;;;0.30;0.30;;;17.20;55.60;;;;;;4926981;29;20073;-84
2024/04/04 09:33:05;;;;;;;1.80;0.73;;;17.20;55.50;;;;;;4935347;29;20040;-86
2024/04/04 09:35:31;;;;;;;0.57;0.50;;;17.20;55.50;;;;;;4910869;29;20043;-85
2024/04/04 09:37:59;;;;;;;1.58;0.52;;;17.20;55.50;;;;;;4927865;28;20415;-84
2024/04/04 09:40:26;;;;;;;2.67;0.40;;;17.20;55.50;;;;;;4926344;29;20038;-87
2024/04/04 09:42:53;;;;;;;3.88;0.52;;;17.20;55.50;;;;;;4927566;29;20547;-86
2024/04/04 09:45:20;;;;;;;1.08;0.60;;;17.10;55.40;;;;;;4911482;29;20040;-87
2024/04/04 09:47:47;;;;;;;1.23;0.63;;;17.10;55.40;;;;;;4942729;28;20057;-84
2024/04/04 09:50:20;;;;;;;0.60;0.47;;;17.10;55.50;;;;;;4925616;29;20036;-84
2024/04/04 09:52:46;;;;;;;0.70;0.50;;;17.10;55.50;;;;;;4926459;28;20567;-83
2024/04/04 09:55:14;;;;;;;0.80;0.32;;;17.10;55.60;;;;;;4927257;29;20032;-83
2024/04/04 09:57:42;;;;;;;0.82;0.60;;;17.10;55.60;;;;;;4910628;29;20039;-85
2024/04/04 10:00:14;;;;;;;0.90;0.60;;;17.10;55.60;;;;;;4926210;29;20495;-83
2024/04/04 10:02:48;;;;;;;2.90;0.98;;;17.10;55.70;;;;;;4926531;29;20225;-83
2024/04/04 10:05:17;;;;;;;1.05;0.98;;;17.10;55.70;;;;;;4925925;29;20032;-84
2024/04/04 10:07:47;;;;;;;1.85;0.88;;;17.10;55.80;;;;;;4942763;29;20031;-83
2024/04/04 10:10:26;;;;;;;2.35;1.20;;;17.10;55.80;;;;;;4926124;29;20042;-83
2024/04/04 10:12:52;;;;;;;2.38;1.27;;;17.00;55.80;;;;;;4924418;29;20039;-83
2024/04/04 10:15:20;;;;;;;4.00;1.10;;;17.10;55.90;;;;;;4908298;29;20070;-82
2024/04/04 10:17:51;;;;;;;3.72;1.10;;;17.00;55.90;;;;;;4924529;29;20059;-81
2024/04/04 10:20:18;;;;;;;0.82;0.82;;;17.10;56.00;;;;;;4926023;28;20040;-82
2024/04/04 10:22:45;;;;;;;1.00;0.68;;;17.00;55.90;;;;;;4917140;29;20054;-84
2024/04/04 10:25:11;;;;;;;0.80;0.57;;;17.10;55.90;;;;;;4926010;29;20071;-82
2024/04/04 10:27:38;;;;;;;0.95;0.70;;;17.00;55.90;;;;;;4925781;29;20518;-84
2024/04/04 10:30:05;;;;;;;1.02;0.70;;;17.00;56.30;;;;;;4918309;29;20106;-81
2024/04/04 10:32:31;;;;;;;0.70;0.60;;;17.10;56.60;;;;;;4911290;29;20138;-84
2024/04/04 10:35:04;;;;;;;0.73;0.60;;;17.10;56.90;;;;;;4925972;28;20035;-85
2024/04/04 10:37:30;;;;;;;0.40;0.40;;;17.10;57.10;;;;;;4935867;29;20527;-84
2024/04/04 10:39:57;;;;;;;1.35;0.60;;;17.10;57.20;;;;;;4903333;29;20130;-83
2024/04/04 10:42:25;;;;;;;0.70;0.40;;;17.10;57.10;;;;;;4926618;28;20530;-85
2024/04/04 10:44:53;;;;;;;0.70;0.60;;;17.00;57.00;;;;;;4910879;29;20051;-85
2024/04/04 10:47:24;;;;;;;0.50;0.45;;;17.10;57.20;;;;;;4911554;29;20050;-84
2024/04/04 10:49:50;;;;;;;2.03;0.50;;;17.10;57.30;;;;;;4926840;28;20043;-85
2024/04/04 10:52:36;;;;;;;1.08;0.60;;;17.10;57.40;;;;;;4924156;29;20035;-85
2024/04/04 10:55:03;;;;;;;0.52;0.35;;;17.10;57.70;;;;;;4922330;29;20047;-86
2024/04/04 10:57:29;;;;;;;1.13;0.50;;;17.10;57.70;;;;;;4909553;29;20040;-84
2024/04/04 10:59:55;;;;;;;0.80;0.63;;;17.10;57.70;;;;;;4926289;29;20139;-82
2024/04/04 11:02:23;;;;;;;0.60;0.60;;;17.10;57.70;;;;;;4925793;28;20146;-84
2024/04/04 11:04:49;;;;;;;0.45;0.40;;;17.10;57.80;;;;;;4925857;28;20036;-84
2024/04/04 11:07:15;;;;;;;0.68;0.50;;;17.10;57.80;;;;;;4927081;29;20028;-85
2024/04/04 11:09:41;;;;;;;0.50;0.30;;;17.20;57.80;;;;;;4919537;29;20043;-83
2024/04/04 11:12:07;;;;;;;0.70;0.47;;;17.20;57.90;;;;;;4928358;28;20047;-84
2024/04/04 11:14:35;;;;;;;1.25;0.40;;;17.20;57.90;;;;;;4926987;28;20063;-85
2024/04/04 11:17:01;;;;;;;0.52;0.52;;;17.20;57.90;;;;;;4924171;28;20403;-82
2024/04/04 11:19:28;;;;;;;1.00;0.50;;;17.20;57.80;;;;;;4926583;29;20023;-84
2024/04/04 11:21:54;;;;;;;0.30;0.30;;;17.20;57.80;;;;;;4926967;28;20036;-82
2024/04/04 11:24:22;;;;;;;0.60;0.50;;;17.20;57.80;;;;;;4906085;29;20040;-83
2024/04/04 11:26:48;;;;;;;1.92;0.57;;;17.20;57.70;;;;;;4918075;29;20036;-83
2024/04/04 11:29:14;;;;;;;1.05;0.50;;;17.20;57.70;;;;;;4926359;28;20039;-84
2024/04/04 11:31:40;;;;;;;0.95;0.50;;;17.20;57.50;;;;;;4910204;29;20114;-81
2024/04/04 11:34:07;;;;;;;0.40;0.38;;;17.20;57.50;;;;;;4913343;29;20043;-83
2024/04/04 11:36:33;;;;;;;1.00;0.60;;;17.20;57.50;;;;;;4925284;29;20036;-83
2024/04/04 11:39:00;;;;;;;2.78;0.85;;;17.20;57.40;;;;;;4927661;29;20704;-81
2024/04/04 11:41:26;;;;;;;0.55;0.52;;;17.20;57.30;;;;;;4923463;28;20047;-79
2024/04/04 11:43:52;;;;;;;1.00;0.70;;;17.20;57.10;;;;;;4924384;28;20574;-78
2024/04/04 11:46:18;;;;;;;0.95;0.50;;;17.20;56.80;;;;;;4925169;29;20093;-78
2024/04/04 11:48:45;;;;;;;2.05;0.47;;;17.10;56.70;;;;;;4936931;28;20039;-77
2024/04/04 11:51:11;;;;;;;0.50;0.50;;;17.10;56.60;;;;;;4924791;28;20042;-79
2024/04/04 11:53:37;;;;;;;0.50;0.50;;;17.10;56.60;;;;;;4938518;28;20039;-79
2024/04/04 11:56:05;;;;;;;0.82;0.50;;;17.10;56.60;;;;;;4925078;28;20035;-81
2024/04/04 11:58:32;;;;;;;0.50;0.38;;;17.10;56.50;;;;;;4925186;29;21186;-80
2024/04/04 12:00:59;;;;;;;0.55;0.40;;;17.10;56.50;;;;;;4923720;28;20067;-82
2024/04/04 12:03:26;;;;;;;0.57;0.55;;;17.00;56.60;;;;;;4922852;29;20530;-80
2024/04/04 12:05:52;;;;;;;0.60;0.40;;;17.00;56.60;;;;;;4922549;28;20047;-78
2024/04/04 12:08:18;;;;;;;1.30;0.60;;;17.00;56.80;;;;;;4924144;29;20043;-79
2024/04/04 12:10:44;;;;;;;0.60;0.60;;;17.00;56.90;;;;;;4920244;29;20495;-79
2024/04/04 12:13:11;;;;;;;0.40;0.40;;;17.00;57.00;;;;;;4919462;29;20103;-82
2024/04/04 12:15:37;;;;;;;0.68;0.60;;;17.00;57.00;;;;;;4920237;28;20039;-79
2024/04/04 12:20:49;;;;;;;0.95;0.55;;;17.00;56.90;;;;;;4920679;29;20044;-79
2024/04/04 12:23:15;;;;;;;0.60;0.40;;;16.90;56.90;;;;;;4921453;29;20530;-81
2024/04/04 12:25:45;;;;;;;2.22;0.70;;;17.00;57.10;;;;;;4924213;29;20039;-80
2024/04/04 12:28:11;;;;;;;1.15;0.60;;;16.90;57.20;;;;;;4922664;29;20039;-79
2024/04/04 12:30:37;;;;;;;0.82;0.60;;;16.90;57.30;;;;;;4920217;28;20036;-79
2024/04/04 12:33:03;;;;;;;0.68;0.55;;;16.90;57.50;;;;;;4921719;28;20039;-79
2024/04/04 12:35:29;;;;;;;3.28;0.45;;;16.90;57.50;;;;;;4921076;28;20031;-79
2024/04/04 12:37:55;;;;;;;0.60;0.40;;;16.90;57.50;;;;;;4925315;28;20032;-79
2024/04/04 12:40:21;;;;;;;1.67;0.65;;;16.90;57.60;;;;;;4920750;29;20040;-78
2024/04/04 12:42:47;;;;;;;1.15;0.47;;;16.90;57.60;;;;;;4920845;28;20404;-77
2024/04/04 12:45:13;;;;;;;1.25;0.60;;;16.90;57.60;;;;;;4919187;28;20050;-80
2024/04/04 12:47:39;;;;;;;0.50;0.50;;;16.90;57.40;;;;;;4920206;28;20032;-80